createdAt,value
2023-06-19T00:02:44.166Z,4.18
2023-06-19T00:05:45.967Z,3.92
2023-06-19T00:08:47.656Z,4.18
2023-06-19T00:11:49.376Z,3.83
2023-06-19T00:14:50.970Z,3.90
2023-06-19T00:17:52.868Z,4.28
2023-06-19T00:20:57.156Z,4.57
2023-06-19T00:23:58.858Z,4.57
2023-06-19T00:27:04.074Z,4.82
2023-06-19T00:30:07.134Z,4.30
2023-06-19T00:33:09.799Z,4.90
2023-06-19T00:36:12.490Z,4.40
2023-06-19T00:39:14.107Z,4.45
2023-06-19T00:42:15.763Z,5.13
2023-06-19T00:45:17.341Z,4.18
2023-06-19T00:48:19.098Z,4.78
2023-06-19T00:51:20.712Z,4.65
2023-06-19T00:54:22.924Z,4.20
2023-06-19T00:57:24.542Z,4.55
2023-06-19T01:00:26.348Z,4.28
2023-06-19T01:03:28.180Z,4.32
2023-06-19T01:06:39.543Z,4.00
2023-06-19T01:09:49.668Z,4.65
2023-06-19T01:12:59.953Z,4.03
2023-06-19T01:16:03.867Z,4.60
2023-06-19T01:19:10.905Z,4.72
2023-06-19T01:22:22.984Z,5.18
2023-06-19T01:25:25.522Z,4.45
2023-06-19T01:28:27.394Z,4.95
2023-06-19T01:31:34.810Z,5.85
2023-06-19T01:34:40.924Z,5.32
2023-06-19T01:37:44.003Z,4.25
2023-06-19T01:40:46.477Z,4.45
2023-06-19T01:43:48.780Z,4.80
2023-06-19T01:46:51.997Z,4.32
2023-06-19T01:49:53.878Z,4.40
2023-06-19T01:52:56.932Z,4.57
2023-06-19T01:55:59.943Z,5.07
2023-06-19T01:59:01.571Z,5.43
2023-06-19T02:02:05.169Z,4.88
2023-06-19T02:05:07.067Z,5.32
2023-06-19T02:08:08.915Z,6.32
2023-06-19T02:11:10.624Z,5.65
2023-06-19T02:14:12.597Z,5.60
2023-06-19T02:17:14.254Z,5.28
2023-06-19T02:20:16.548Z,5.18
2023-06-19T02:23:18.168Z,4.63
2023-06-19T02:26:19.749Z,4.65
2023-06-19T02:29:21.589Z,6.18
2023-06-19T02:32:23.269Z,5.55
2023-06-19T02:35:24.890Z,5.07
2023-06-19T02:38:27.163Z,7.07
2023-06-19T02:41:28.735Z,9.55
2023-06-19T02:44:30.295Z,6.35
2023-06-19T02:47:34.903Z,7.32
2023-06-19T02:50:36.601Z,7.55
2023-06-19T02:53:38.229Z,7.93
2023-06-19T02:56:40.041Z,7.25
2023-06-19T02:59:41.847Z,9.00
2023-06-19T03:02:45.312Z,8.45
2023-06-19T03:05:47.030Z,8.27
2023-06-19T03:08:48.681Z,7.38
2023-06-19T03:11:50.302Z,8.95
2023-06-19T03:14:51.973Z,7.28
2023-06-19T03:17:54.547Z,8.93
2023-06-19T03:20:56.227Z,8.32
2023-06-19T03:23:58.091Z,7.90
2023-06-19T03:26:59.682Z,7.85
2023-06-19T03:30:01.449Z,6.90
2023-06-19T03:33:03.116Z,6.90
2023-06-19T03:36:05.244Z,7.22
2023-06-19T03:39:07.014Z,7.20
2023-06-19T03:42:09.199Z,7.35
2023-06-19T03:45:11.079Z,7.38
2023-06-19T03:48:12.932Z,7.38
2023-06-19T03:51:14.602Z,7.18
2023-06-19T03:54:16.180Z,8.77
2023-06-19T03:57:17.853Z,6.95
2023-06-19T04:00:19.863Z,6.60
2023-06-19T04:03:21.835Z,7.95
2023-06-19T04:06:23.936Z,7.75
2023-06-19T04:09:26.071Z,7.55
2023-06-19T04:12:27.696Z,7.78
2023-06-19T04:15:29.357Z,7.32
2023-06-19T04:18:30.993Z,7.88
2023-06-19T04:21:32.604Z,7.45
2023-06-19T04:24:34.511Z,8.50
2023-06-19T04:27:36.257Z,8.73
2023-06-19T04:30:40.483Z,8.63
2023-06-19T04:33:43.112Z,6.35
2023-06-19T04:36:45.628Z,7.05
2023-06-19T04:39:47.599Z,7.18
2023-06-19T04:42:49.261Z,6.65
2023-06-19T04:45:50.895Z,8.23
2023-06-19T04:48:52.553Z,7.20
2023-06-19T04:51:54.197Z,6.88
2023-06-19T04:54:55.783Z,6.43
2023-06-19T04:57:57.453Z,6.40
2023-06-19T05:00:59.110Z,6.32
2023-06-19T05:04:00.866Z,5.88
2023-06-19T05:07:03.228Z,5.95
2023-06-19T05:10:05.498Z,6.20
2023-06-19T05:13:07.187Z,6.10
2023-06-19T05:16:08.886Z,6.05
2023-06-19T05:19:10.595Z,5.85
2023-06-19T05:22:12.245Z,4.97
2023-06-19T05:25:13.987Z,5.38
2023-06-19T05:28:15.589Z,5.45
2023-06-19T05:31:17.241Z,5.78
2023-06-19T05:34:18.872Z,5.95
2023-06-19T05:37:20.522Z,4.47
2023-06-19T05:40:22.424Z,4.65
2023-06-19T05:43:25.782Z,4.22
2023-06-19T05:46:27.393Z,4.78
2023-06-19T05:49:29.000Z,5.07
2023-06-19T05:52:30.679Z,4.63
2023-06-19T05:55:32.352Z,5.18
2023-06-19T05:58:34.073Z,4.38
2023-06-19T06:01:35.956Z,4.10
2023-06-19T06:04:37.950Z,4.18
2023-06-19T06:07:41.409Z,4.75
2023-06-19T06:10:44.566Z,3.85
2023-06-19T06:13:46.197Z,3.80
2023-06-19T06:16:47.867Z,3.95
2023-06-19T06:19:49.582Z,3.80
2023-06-19T06:22:51.324Z,3.78
2023-06-19T06:25:53.105Z,4.00
2023-06-19T06:28:55.769Z,4.22
2023-06-19T06:32:08.445Z,3.58
2023-06-19T06:35:10.354Z,3.10
2023-06-19T06:38:12.344Z,3.28
2023-06-19T06:41:14.007Z,3.63
2023-06-19T06:44:15.572Z,3.13
2023-06-19T06:47:17.164Z,3.60
2023-06-19T06:50:18.762Z,3.03
2023-06-19T06:53:20.372Z,3.13
2023-06-19T06:56:21.966Z,2.80
2023-06-19T06:59:24.170Z,3.50
2023-06-19T07:02:28.421Z,3.67
2023-06-19T07:05:31.103Z,3.92
2023-06-19T07:08:32.739Z,3.55
2023-06-19T07:11:34.477Z,3.58
2023-06-19T07:14:36.062Z,3.20
2023-06-19T07:17:37.740Z,3.10
2023-06-19T07:20:39.390Z,2.50
2023-06-19T07:23:42.084Z,2.95
2023-06-19T07:26:43.732Z,2.83
2023-06-19T07:29:45.430Z,3.15
2023-06-19T07:32:47.290Z,2.75
2023-06-19T07:35:48.991Z,3.33
2023-06-19T07:38:50.682Z,3.20
2023-06-19T07:41:52.259Z,3.40
2023-06-19T07:44:53.823Z,2.95
2023-06-19T07:47:57.156Z,2.83
2023-06-19T07:50:58.845Z,3.08
2023-06-19T07:54:00.546Z,3.63
2023-06-19T07:57:02.644Z,3.33
2023-06-19T08:00:23.525Z,3.10
2023-06-19T08:03:25.475Z,3.47
2023-06-19T08:06:27.252Z,3.58
2023-06-19T08:09:28.830Z,3.35
2023-06-19T08:12:30.869Z,3.38
2023-06-19T08:15:33.054Z,5.30
2023-06-19T08:18:34.686Z,3.75
2023-06-19T08:21:36.263Z,3.40
2023-06-19T08:24:40.134Z,3.78
2023-06-19T08:27:43.106Z,3.45
2023-06-19T08:30:46.792Z,3.30
2023-06-19T08:33:53.875Z,4.10
2023-06-19T08:36:56.534Z,4.18
2023-06-19T08:39:58.140Z,3.35
2023-06-19T08:42:59.916Z,2.95
2023-06-19T08:46:12.214Z,3.83
2023-06-19T08:49:14.695Z,3.83
2023-06-19T08:52:16.289Z,3.00
2023-06-19T08:55:18.010Z,3.67
2023-06-19T08:58:24.218Z,3.58
2023-06-19T09:01:27.945Z,3.58
2023-06-19T09:04:29.753Z,3.40
2023-06-19T09:07:31.660Z,2.83
2023-06-19T09:10:33.396Z,3.50
2023-06-19T09:13:36.271Z,3.20
2023-06-19T09:16:42.738Z,3.00
2023-06-19T09:19:51.752Z,3.08
2023-06-19T09:22:58.923Z,2.75
2023-06-19T09:26:00.556Z,3.65
2023-06-19T09:29:19.519Z,3.65
2023-06-19T09:32:28.045Z,3.58
2023-06-19T09:35:29.652Z,3.35
2023-06-19T09:38:40.088Z,2.97
2023-06-19T09:41:43.470Z,3.30
2023-06-19T09:44:48.849Z,3.95
2023-06-19T09:47:54.733Z,5.03
2023-06-19T09:51:06.615Z,3.00
2023-06-19T09:54:10.664Z,3.65
2023-06-19T09:57:12.284Z,3.67
2023-06-19T10:00:17.178Z,3.10
2023-06-19T10:03:19.226Z,3.15
2023-06-19T10:06:23.430Z,3.17
2023-06-19T10:09:25.047Z,3.67
2023-06-19T10:12:44.563Z,3.10
2023-06-19T10:15:46.179Z,3.95
2023-06-19T10:18:48.367Z,3.20
2023-06-19T10:21:52.548Z,3.78
2023-06-19T10:24:54.294Z,3.58
2023-06-19T10:27:56.173Z,3.90
2023-06-19T10:31:02.974Z,3.75
2023-06-19T10:34:05.093Z,4.07
2023-06-19T10:37:06.805Z,4.25
2023-06-19T10:40:10.876Z,3.75
2023-06-19T10:43:29.154Z,3.63
2023-06-19T10:46:36.875Z,4.47
2023-06-19T10:49:38.670Z,4.40
2023-06-19T10:52:45.001Z,4.82
2023-06-19T10:55:46.645Z,4.47
2023-06-19T10:58:48.383Z,4.43
2023-06-19T11:01:51.723Z,3.92
2023-06-19T11:04:55.579Z,3.72
2023-06-19T11:07:59.679Z,3.90
2023-06-19T11:11:01.320Z,5.05
2023-06-19T11:14:03.354Z,4.45
2023-06-19T11:17:05.384Z,3.70
2023-06-19T11:20:11.802Z,3.92
2023-06-19T11:23:14.245Z,3.42
2023-06-19T11:26:15.840Z,3.80
2023-06-19T11:29:19.618Z,4.38
2023-06-19T11:32:25.997Z,4.68
2023-06-19T11:35:35.598Z,4.75
2023-06-19T11:38:39.414Z,4.18
2023-06-19T11:41:42.501Z,3.80
2023-06-19T11:45:13.477Z,4.85
2023-06-19T11:48:15.198Z,4.38
2023-06-19T11:51:16.856Z,3.88
2023-06-19T11:54:24.629Z,3.45
2023-06-19T11:57:28.057Z,4.03
2023-06-19T12:00:30.038Z,4.10
2023-06-19T12:03:31.771Z,4.30
2023-06-19T12:06:33.628Z,4.28
2023-06-19T12:09:35.690Z,4.35
2023-06-19T12:12:39.030Z,3.97
2023-06-19T12:15:40.605Z,4.25
2023-06-19T12:18:42.983Z,3.83
2023-06-19T12:21:44.632Z,4.50
2023-06-19T12:24:46.268Z,4.22
2023-06-19T12:27:48.711Z,4.25
2023-06-19T12:30:54.098Z,4.38
2023-06-19T12:33:56.966Z,4.20
2023-06-19T12:37:05.938Z,4.13
2023-06-19T12:40:11.925Z,4.05
2023-06-19T12:46:15.359Z,3.67
2023-06-19T12:49:17.112Z,5.05
2023-06-19T12:52:18.819Z,4.30
2023-06-19T12:55:20.463Z,5.70
2023-06-19T12:58:22.135Z,4.43
2023-06-19T13:01:23.788Z,4.53
2023-06-19T13:04:25.478Z,3.65
2023-06-19T13:07:27.090Z,4.75
2023-06-19T13:10:28.730Z,3.97
2023-06-19T13:13:30.392Z,5.22
2023-06-19T13:16:45.439Z,4.78
2023-06-19T13:19:48.027Z,4.13
2023-06-19T13:22:49.645Z,4.80
2023-06-19T13:25:51.251Z,3.97
2023-06-19T13:28:53.114Z,4.75
2023-06-19T13:31:54.772Z,4.93
2023-06-19T13:34:57.254Z,4.65
2023-06-19T13:37:58.866Z,4.60
2023-06-19T13:41:00.510Z,4.40
2023-06-19T13:44:02.599Z,5.35
2023-06-19T13:47:04.906Z,5.40
2023-06-19T13:50:08.044Z,4.22
2023-06-19T13:53:09.930Z,4.45
2023-06-19T13:56:12.471Z,5.05
2023-06-19T13:59:14.779Z,4.80
2023-06-19T14:02:16.471Z,4.43
2023-06-19T14:05:18.287Z,4.38
2023-06-19T14:08:19.937Z,4.43
2023-06-19T14:11:21.924Z,4.60
2023-06-19T14:14:23.621Z,5.50
2023-06-19T14:17:25.629Z,4.13
2023-06-19T14:20:27.437Z,4.60
2023-06-19T14:23:29.149Z,4.88
2023-06-19T14:26:30.758Z,3.83
2023-06-19T14:29:38.849Z,4.25
2023-06-19T14:32:40.555Z,4.43
2023-06-19T14:35:45.837Z,5.20
2023-06-19T14:38:47.504Z,4.53
2023-06-19T14:41:49.154Z,4.05
2023-06-19T14:44:50.854Z,5.07
2023-06-19T14:47:52.536Z,3.95
2023-06-19T14:50:54.187Z,4.15
2023-06-19T14:53:56.001Z,4.38
2023-06-19T14:56:57.755Z,4.22
2023-06-19T14:59:59.401Z,4.88
2023-06-19T15:03:01.221Z,4.30
2023-06-19T15:06:03.743Z,4.55
2023-06-19T15:09:05.681Z,4.47
2023-06-19T15:12:07.724Z,4.63
2023-06-19T15:15:09.774Z,4.47
2023-06-19T15:18:11.583Z,4.93
2023-06-19T15:21:13.306Z,5.47
2023-06-19T15:24:15.307Z,4.57
2023-06-19T15:27:16.886Z,4.75
2023-06-19T15:30:18.533Z,4.28
2023-06-19T15:33:20.190Z,5.05
2023-06-19T15:36:21.878Z,3.83
2023-06-19T15:39:23.474Z,5.18
2023-06-19T15:42:25.154Z,4.55
2023-06-19T15:45:26.932Z,6.15
2023-06-19T15:48:29.475Z,4.72
2023-06-19T15:51:31.192Z,4.25
2023-06-19T15:54:32.858Z,3.97
2023-06-19T15:57:34.763Z,5.30
2023-06-19T16:00:36.476Z,4.60
2023-06-19T16:03:38.207Z,4.88
2023-06-19T16:06:40.992Z,4.47
2023-06-19T16:09:54.470Z,4.22
2023-06-19T16:12:57.016Z,5.20
2023-06-19T16:15:58.821Z,4.20
2023-06-19T16:19:00.538Z,5.13
2023-06-19T16:22:02.498Z,4.72
2023-06-19T16:25:04.595Z,3.78
2023-06-19T16:28:06.460Z,4.60
2023-06-19T16:31:09.283Z,5.38
2023-06-19T16:34:10.989Z,4.15
2023-06-19T16:37:12.751Z,4.40
2023-06-19T16:40:14.402Z,4.70
2023-06-19T16:43:16.076Z,4.47
2023-06-19T16:46:17.872Z,4.72
2023-06-19T16:49:20.173Z,4.70
2023-06-19T16:52:23.364Z,4.65
2023-06-19T16:55:25.587Z,4.32
2023-06-19T16:58:27.342Z,4.50
2023-06-19T17:01:28.975Z,4.13
2023-06-19T17:04:30.573Z,4.38
2023-06-19T17:07:32.232Z,4.18
2023-06-19T17:10:33.911Z,4.80
2023-06-19T17:13:35.525Z,4.30
2023-06-19T17:16:37.169Z,4.20
2023-06-19T17:19:39.313Z,4.65
2023-06-19T17:22:40.916Z,3.97
2023-06-19T17:25:42.596Z,4.25
2023-06-19T17:28:44.210Z,4.18
2023-06-19T17:31:45.827Z,4.20
2023-06-19T17:34:47.473Z,3.53
2023-06-19T17:37:49.110Z,4.10
2023-06-19T17:40:50.753Z,4.18
2023-06-19T17:43:52.409Z,4.22
2023-06-19T17:46:54.148Z,5.15
2023-06-19T17:49:55.920Z,5.13
2023-06-19T17:52:57.558Z,4.20
2023-06-19T17:56:01.725Z,4.60
2023-06-19T17:59:03.622Z,4.07
2023-06-19T18:02:05.569Z,4.55
2023-06-19T18:05:07.584Z,4.38
2023-06-19T18:08:09.704Z,4.40
2023-06-19T18:11:11.322Z,4.68
2023-06-19T18:14:12.957Z,4.20
2023-06-19T18:17:14.944Z,4.30
2023-06-19T18:20:16.777Z,3.92
2023-06-19T18:23:18.485Z,4.72
2023-06-19T18:26:20.177Z,4.32
2023-06-19T18:29:22.123Z,4.28
2023-06-19T18:32:23.827Z,4.15
2023-06-19T18:35:25.458Z,5.18
2023-06-19T18:38:27.114Z,4.90
2023-06-19T18:41:28.772Z,5.05
2023-06-19T18:44:30.486Z,5.22
2023-06-19T18:47:32.067Z,5.40
2023-06-19T18:50:33.901Z,5.18
2023-06-19T18:53:35.518Z,5.50
2023-06-19T18:56:38.231Z,5.45
2023-06-19T18:59:39.829Z,4.78
2023-06-19T19:02:41.679Z,5.50
2023-06-19T19:05:43.531Z,4.85
2023-06-19T19:08:45.331Z,5.70
2023-06-19T19:11:49.384Z,4.63
2023-06-19T19:14:52.286Z,4.82
2023-06-19T19:17:54.011Z,4.63
2023-06-19T19:20:55.673Z,4.80
2023-06-19T19:23:57.460Z,4.43
2023-06-19T19:26:59.251Z,5.55
2023-06-19T19:30:00.961Z,4.43
2023-06-19T19:33:02.725Z,5.70
2023-06-19T19:36:05.868Z,4.75
2023-06-19T19:39:07.467Z,4.85
2023-06-19T19:42:09.297Z,4.35
2023-06-19T19:45:11.246Z,4.60
2023-06-19T19:48:12.938Z,5.07
2023-06-19T19:51:15.450Z,4.57
2023-06-19T19:54:17.141Z,4.78
2023-06-19T19:57:18.798Z,5.72
2023-06-19T20:00:20.450Z,5.25
2023-06-19T20:03:22.217Z,4.47
2023-06-19T20:06:23.987Z,5.18
2023-06-19T20:09:25.606Z,5.30
2023-06-19T20:12:27.488Z,4.80
2023-06-19T20:15:29.116Z,5.28
2023-06-19T20:18:30.814Z,5.05
2023-06-19T20:21:32.515Z,5.45
2023-06-19T20:24:34.668Z,4.72
2023-06-19T20:27:36.446Z,5.38
2023-06-19T20:30:38.688Z,5.32
2023-06-19T20:33:40.320Z,5.25
2023-06-19T20:36:41.914Z,4.78
2023-06-19T20:39:43.534Z,5.72
2023-06-19T20:42:45.155Z,5.30
2023-06-19T20:45:46.768Z,5.28
2023-06-19T20:48:48.449Z,5.20
2023-06-19T20:51:51.537Z,4.97
2023-06-19T20:54:53.149Z,5.03
2023-06-19T20:57:54.867Z,5.03
2023-06-19T21:00:56.641Z,4.57
2023-06-19T21:04:02.532Z,4.38
2023-06-19T21:07:04.460Z,4.30
2023-06-19T21:10:06.558Z,4.43
2023-06-19T21:13:21.950Z,5.15
2023-06-19T21:16:25.609Z,5.05
2023-06-19T21:19:27.355Z,4.78
2023-06-19T21:22:28.969Z,4.88
2023-06-19T21:25:30.710Z,5.45
2023-06-19T21:28:33.039Z,5.35
2023-06-19T21:31:34.713Z,5.78
2023-06-19T21:34:36.342Z,5.57
2023-06-19T21:37:37.950Z,4.72
2023-06-19T21:40:39.614Z,4.75
2023-06-19T21:43:41.247Z,5.78
2023-06-19T21:46:43.055Z,5.18
2023-06-19T21:49:44.726Z,5.38
2023-06-19T21:52:46.595Z,5.05
2023-06-19T21:55:49.406Z,5.45
2023-06-19T21:58:51.008Z,5.55
2023-06-19T22:01:52.625Z,5.10
2023-06-19T22:04:54.261Z,5.40
2023-06-19T22:07:56.252Z,5.55
2023-06-19T22:10:57.992Z,5.68
2023-06-19T22:14:01.200Z,5.20
2023-06-19T22:17:04.896Z,5.60
2023-06-19T22:20:09.335Z,5.13
2023-06-19T22:23:11.105Z,5.65
2023-06-19T22:26:12.962Z,5.15
2023-06-19T22:29:14.641Z,5.57
2023-06-19T22:32:16.245Z,5.57
2023-06-19T22:35:17.920Z,5.15
2023-06-19T22:38:19.780Z,5.18
2023-06-19T22:41:21.842Z,5.47
2023-06-19T22:44:23.701Z,5.20
2023-06-19T22:47:25.370Z,5.63
2023-06-19T22:50:27.040Z,5.35
2023-06-19T22:53:31.436Z,5.07
2023-06-19T22:56:33.923Z,5.75
2023-06-19T22:59:35.797Z,6.03
2023-06-19T23:02:37.505Z,6.35
2023-06-19T23:05:39.155Z,4.70
2023-06-19T23:08:41.248Z,5.95
2023-06-19T23:11:43.113Z,5.25
2023-06-19T23:14:44.736Z,5.07
2023-06-19T23:17:46.454Z,6.38
2023-06-19T23:20:48.156Z,6.15
2023-06-19T23:23:50.008Z,6.45
2023-06-19T23:26:51.590Z,6.05
2023-06-19T23:29:53.260Z,6.20
2023-06-19T23:32:54.972Z,5.13
2023-06-19T23:35:57.640Z,5.68
2023-06-19T23:38:59.489Z,5.88
2023-06-19T23:42:03.954Z,5.90
2023-06-19T23:45:06.092Z,5.78
2023-06-19T23:48:07.752Z,5.75
2023-06-19T23:51:09.435Z,6.00
2023-06-19T23:54:11.086Z,6.47
2023-06-19T23:57:12.697Z,5.40
